Arcadia, South Carolina
Current Conditions -  °F | °C
As of 10:15 PM on Tuesday 21 Oct 2014 (Local Time) from KSPA Reporting Station
Clear Clear  
Wind Chill: 63°   Ceiling: Unl
Heat Index: 63°   Visibility: 10mi
Dew Point: 39°   Wind: 12mph
Humidity: 42%   Direction: 340°NNW
Pressure: 29.96"   Gusts: 22mph
Location:  34.96°N, 81.99°W
Report Text: KSPA 220215Z AUTO 34010G19KT 10SM CLR 17/04 A2996 RMK AO2
Loading
Personal Weather Stations






























Interactive Weather Map
Tropical Storm Tracking
New forecast layout! Learn more

10-Day Weather Forecast

Advertisements
Track Severe Weather on mobile